Wray, Colorado
Current Conditions -  °F | °C
As of 6:35 PM on Friday 28 Nov 2014 (Local Time) from K2V5 Reporting Station
Clear Clear  
Wind Chill: 46°   Ceiling: Unl
Heat Index: 49°   Visibility: 10mi
Dew Point: 21°   Wind: 7mph
Humidity: 33%   Direction: 240°WSW
Pressure: 29.75"   Gusts: NA
Location:  40.08°N, 102.22°W
Report Text: K2V5 290135Z AUTO 24006KT 10SM CLR 10/M06 A2975 RMK AO2 T00961061
Loading
Personal Weather Stations






























Interactive Weather Map New forecast layout! Learn more

10-Day Weather Forecast

Advertisements
Track Severe Weather on mobile